Adelma Beach, Washington
Current Conditions -  °F | °C
As of 1:56 PM on Tuesday 21 Oct 2014 (Local Time) from KNUW Reporting Station
Broken Clouds Broken Clouds  
Wind Chill: 62°   Ceiling: 9000
Heat Index: 62°   Visibility: 10mi
Dew Point: 51°   Wind: 29mph
Humidity: 67%   Direction: 150°SSE
Pressure: 29.84"   Gusts: 39mph
Location:  48.026°N, 122.859°W
Report Text: KNUW 212056Z 15025G34KT 10SM SCT025 BKN090 BKN150 BKN250 17/11 A2984 RMK AO2 PK WND 15039/2041 SLP110 T01670106 58012 VISNO E $
Loading
Personal Weather Stations






























Interactive Weather Map
Tropical Storm Tracking
New forecast layout! Learn more

10-Day Weather Forecast

Advertisements
Track Severe Weather on mobile